Time;durP1;ratioP1;P1;durP2;ratioP2;P2;SDS_P1;SDS_P2;PMS_P1;PMS_P2;Temp;Humidity;BMP_temperature;BMP_pressure;BME280_temperature;BME280_humidity;BME280_pressure;Samples;Min_cycle;Max_cycle;Signal;HPM_P1;HPM_P2
2021/10/29 00:00:04;;;;;;;19.20;11.10;;;2.20;99.90;;;1.79;94.07;98370.19;172702;28;2735;-72
2021/10/29 00:00:10;;;;;;;17.11;10.96;;;2.20;99.90;;;1.86;94.28;98382.06;171857;28;1077;-73
2021/10/29 00:00:17;;;;;;;15.70;11.40;;;2.20;99.90;;;1.82;94.26;98375.25;170583;28;1567;-74
2021/10/29 00:00:23;;;;;;;17.46;11.90;;;2.20;99.90;;;1.86;94.56;98372.28;171241;28;880;-74
2021/10/29 00:00:29;;;;;;;17.48;12.05;;;2.20;99.90;;;1.87;94.71;98384.59;172100;28;1132;-73
2021/10/29 00:00:37;;;;;;;17.95;11.88;;;2.20;99.90;;;1.86;94.79;98382.06;172136;28;2035;-74
2021/10/29 00:00:43;;;;;;;19.50;11.80;;;2.20;99.90;;;1.82;94.43;98367.28;172485;28;1287;-73
2021/10/29 00:00:49;;;;;;;20.00;11.93;;;2.20;99.90;;;1.81;94.21;98371.78;171567;28;1379;-74
2021/10/29 00:00:55;;;;;;;19.03;11.80;;;2.20;99.90;;;1.77;94.26;98359.66;171749;28;1317;-72
2021/10/29 00:01:02;;;;;;;19.50;11.67;;;2.20;99.90;;;1.84;94.20;98376.00;171328;28;1483;-73
2021/10/29 00:01:09;;;;;;;19.12;11.78;;;2.20;99.90;;;1.81;94.12;98370.94;172123;28;1009;-73
2021/10/29 00:01:15;;;;;;;18.43;11.60;;;2.20;99.90;;;1.83;94.41;98371.66;172682;28;926;-74
2021/10/29 00:01:21;;;;;;;18.30;11.47;;;2.20;99.90;;;1.83;94.53;98367.19;172976;28;1132;-73
2021/10/29 00:01:30;;;;;;;17.55;11.45;;;2.20;99.90;;;1.83;93.92;98372.50;173872;28;1477;-73
2021/10/29 00:01:36;;;;;;;17.97;11.74;;;2.20;99.90;;;1.86;94.58;98379.41;171136;28;1198;-74
2021/10/29 00:01:42;;;;;;;18.83;12.35;;;2.20;99.90;;;1.87;94.17;98375.78;171806;28;1249;-73
2021/10/29 00:01:48;;;;;;;18.42;12.25;;;2.20;99.90;;;1.78;94.42;98364.03;171726;28;1150;-73
2021/10/29 00:01:54;;;;;;;18.53;12.03;;;2.20;99.90;;;1.89;94.13;98380.03;171123;28;1473;-74
2021/10/29 00:02:00;;;;;;;19.77;12.05;;;2.20;99.90;;;1.82;93.96;98365.50;172109;28;1345;-74
2021/10/29 00:02:06;;;;;;;19.40;11.75;;;2.20;99.90;;;1.87;94.05;98373.97;173739;28;1038;-74
2021/10/29 00:02:12;;;;;;;21.13;11.38;;;2.20;99.90;;;1.83;94.38;98371.66;172604;28;1072;-74
2021/10/29 00:02:18;;;;;;;22.40;11.10;;;2.20;99.90;;;1.83;93.81;98374.31;172401;28;1326;-73
2021/10/29 00:02:25;;;;;;;22.65;11.10;;;2.20;99.90;;;1.88;93.81;98374.81;172600;28;973;-74
2021/10/29 00:02:31;;;;;;;21.72;11.04;;;2.20;99.90;;;1.87;93.81;98376.63;172396;28;1297;-74
2021/10/29 00:02:37;;;;;;;21.70;10.93;;;2.20;99.90;;;1.87;93.70;98381.06;172562;28;1843;-73
2021/10/29 00:02:43;;;;;;;20.20;11.07;;;2.20;99.90;;;1.82;93.68;98370.78;171405;28;1447;-74
2021/10/29 00:02:50;;;;;;;20.20;11.12;;;2.20;99.90;;;1.79;93.62;98356.91;171689;28;1573;-74
2021/10/29 00:02:56;;;;;;;21.02;11.48;;;2.20;99.90;;;1.82;93.40;98367.28;172585;28;1652;-73
2021/10/29 00:03:04;;;;;;;21.23;11.55;;;2.20;99.90;;;1.84;93.86;98368.88;173284;28;1359;-74
2021/10/29 00:03:10;;;;;;;21.30;11.55;;;2.20;99.90;;;1.77;93.82;98361.47;171561;28;1168;-73
2021/10/29 00:03:16;;;;;;;21.27;11.93;;;2.20;99.90;;;1.81;93.81;98365.63;171957;28;1006;-73
2021/10/29 00:03:22;;;;;;;19.82;11.64;;;2.20;99.90;;;1.83;93.61;98372.50;173011;28;1044;-74
2021/10/29 00:03:28;;;;;;;19.50;11.63;;;2.20;99.90;;;1.81;93.34;98365.63;172364;28;1934;-74
2021/10/29 00:03:35;;;;;;;19.90;12.03;;;2.20;99.90;;;1.77;93.26;98370.28;171690;28;1599;-74
2021/10/29 00:03:41;;;;;;;20.13;12.00;;;2.20;99.90;;;1.84;93.37;98383.97;171225;28;1197;-74
2021/10/29 00:03:47;;;;;;;21.08;11.80;;;2.20;99.90;;;1.82;93.58;98383.22;170506;28;1677;-74
2021/10/29 00:03:53;;;;;;;23.27;12.38;;;2.20;99.90;;;1.76;93.14;98368.63;172569;28;1190;-74
2021/10/29 00:03:59;;;;;;;23.88;12.35;;;2.20;99.90;;;1.70;93.43;98361.09;171882;28;1090;-73
2021/10/29 00:04:05;;;;;;;24.48;12.13;;;2.20;99.90;;;1.82;93.37;98376.09;172884;28;1394;-75
2021/10/29 00:04:11;;;;;;;24.17;11.95;;;2.20;99.90;;;1.83;92.93;98379.63;172421;28;1282;-74
2021/10/29 00:04:17;;;;;;;22.30;11.82;;;2.10;99.90;;;1.82;93.15;98376.09;171445;28;1355;-73
2021/10/29 00:04:23;;;;;;;21.63;11.70;;;2.10;99.90;;;1.78;93.34;98364.03;173808;28;1524;-74
2021/10/29 00:04:29;;;;;;;21.87;11.73;;;2.10;99.90;;;1.78;93.37;98373.78;172979;28;1289;-73
2021/10/29 00:04:34;;;;;;;20.45;11.73;;;2.10;99.90;;;1.80;93.38;98371.88;172473;28;1075;-74
2021/10/29 00:04:41;;;;;;;19.25;11.75;;;2.10;99.90;;;1.76;93.32;98367.75;172084;28;1309;-72
2021/10/29 00:04:47;;;;;;;19.25;11.73;;;2.10;99.90;;;1.76;92.96;98367.75;172574;28;1447;-74
2021/10/29 00:04:55;;;;;;;18.25;11.57;;;2.10;99.90;;;1.66;93.11;98351.63;173954;28;1365;-74
2021/10/29 00:05:02;;;;;;;17.13;11.17;;;2.10;99.90;;;1.77;93.51;98372.94;173277;28;924;-74
2021/10/29 00:05:09;;;;;;;17.64;10.68;;;2.10;99.90;;;1.82;93.68;98380.56;171763;28;1116;-74
2021/10/29 00:05:15;;;;;;;18.63;10.40;;;2.10;99.90;;;1.76;93.65;98370.41;171821;28;1217;-74
2021/10/29 00:05:21;;;;;;;18.43;10.43;;;2.10;99.90;;;1.78;93.14;98371.13;172483;28;1393;-73
2021/10/29 00:05:27;;;;;;;18.02;10.38;;;2.10;99.90;;;1.78;93.38;98371.97;173302;28;1095;-72
2021/10/29 00:05:35;;;;;;;17.63;10.57;;;2.10;99.90;;;1.78;93.37;98368.47;173117;28;1353;-73
2021/10/29 00:05:41;;;;;;;17.22;11.12;;;2.10;99.90;;;1.78;93.44;98371.97;172598;28;968;-74
2021/10/29 00:05:48;;;;;;;17.20;11.17;;;2.20;99.90;;;1.68;93.25;98347.06;171415;28;1454;-74
2021/10/29 00:05:54;;;;;;;17.10;11.32;;;2.10;99.90;;;1.78;93.70;98365.81;172495;28;1561;-74
2021/10/29 00:06:00;;;;;;;20.47;11.93;;;2.10;99.90;;;1.78;93.51;98368.47;172499;28;1047;-74
2021/10/29 00:06:06;;;;;;;22.77;12.13;;;2.10;99.90;;;1.86;93.66;98379.41;173377;28;1185;-75
2021/10/29 00:06:12;;;;;;;23.13;12.20;;;2.20;99.90;;;1.87;93.56;98378.41;172965;28;1954;-72
2021/10/29 00:06:18;;;;;;;23.23;12.33;;;2.20;99.90;;;1.84;93.59;98373.34;172491;28;1498;-74
2021/10/29 00:06:24;;;;;;;23.42;11.88;;;2.20;99.90;;;1.88;93.84;98374.81;171324;28;966;-74
2021/10/29 00:06:30;;;;;;;21.95;11.73;;;2.20;99.90;;;1.86;93.77;98369.63;170684;28;1134;-74
2021/10/29 00:06:37;;;;;;;19.27;11.60;;;2.20;99.90;;;1.81;93.39;98360.31;172379;28;1017;-74
2021/10/29 00:06:43;;;;;;;18.90;11.40;;;2.20;99.90;;;1.77;93.40;98358.81;172027;28;1461;-73
2021/10/29 00:06:49;;;;;;;19.84;11.64;;;2.20;99.90;;;1.82;93.40;98364.63;173893;28;1281;-74
2021/10/29 00:06:55;;;;;;;20.77;12.20;;;2.20;99.90;;;1.84;93.27;98368.03;173090;28;1447;-74
2021/10/29 00:07:02;;;;;;;20.73;12.50;;;2.20;99.90;;;1.83;93.34;98366.34;172560;28;1406;-74
2021/10/29 00:07:09;;;;;;;22.57;12.80;;;2.20;99.90;;;1.82;93.38;98367.28;171698;28;1300;-74
2021/10/29 00:07:15;;;;;;;23.28;12.72;;;2.20;99.90;;;1.86;93.63;98376.75;173319;28;903;-73
2021/10/29 00:07:22;;;;;;;21.88;12.57;;;2.20;99.90;;;1.88;93.70;98380.13;172541;28;1333;-73
2021/10/29 00:07:28;;;;;;;21.98;12.44;;;2.20;99.90;;;1.81;93.74;98365.63;172006;28;930;-74
2021/10/29 00:07:34;;;;;;;22.33;12.20;;;2.20;99.90;;;1.86;93.19;98374.09;172241;28;1227;-74
2021/10/29 00:07:40;;;;;;;21.33;12.00;;;2.20;99.90;;;1.79;93.16;98368.38;171041;28;1446;-73
2021/10/29 00:07:46;;;;;;;21.05;12.05;;;2.20;99.90;;;1.85;93.31;98375.91;171784;28;1478;-73
2021/10/29 00:07:52;;;;;;;20.95;11.95;;;2.20;99.90;;;1.82;92.88;98369.94;172837;28;1325;-73
2021/10/29 00:07:59;;;;;;;19.73;11.63;;;2.20;99.90;;;1.80;93.12;98366.56;173147;28;1214;-74
2021/10/29 00:08:05;;;;;;;19.07;11.57;;;2.10;99.90;;;1.76;93.25;98365.09;172103;28;1302;-74
2021/10/29 00:08:11;;;;;;;20.02;11.70;;;2.20;99.90;;;1.80;93.18;98366.56;171671;28;1446;-73
2021/10/29 00:08:17;;;;;;;19.90;11.53;;;2.10;99.90;;;1.77;92.96;98372.94;171766;28;1064;-73
2021/10/29 00:08:23;;;;;;;19.07;11.30;;;2.20;99.90;;;1.74;93.06;98364.34;171864;28;1516;-72
2021/10/29 00:08:29;;;;;;;19.67;11.52;;;2.20;99.90;;;1.76;92.99;98365.09;172878;28;1796;-74
2021/10/29 00:08:35;;;;;;;18.60;11.33;;;2.20;99.90;;;1.80;92.82;98371.88;173261;28;1263;-74
2021/10/29 00:08:41;;;;;;;17.10;11.25;;;2.10;99.90;;;1.83;93.51;98377.81;171864;28;1482;-73
2021/10/29 00:08:47;;;;;;;18.03;11.50;;;2.20;99.90;;;1.80;93.54;98374.53;173332;28;879;-74
2021/10/29 00:08:53;;;;;;;18.75;11.85;;;2.20;99.90;;;1.84;93.26;98370.69;171502;28;1054;-74
2021/10/29 00:09:02;;;;;;;18.13;11.75;;;2.20;99.90;;;1.78;93.13;98369.34;171322;28;959;-74
2021/10/29 00:09:08;;;;;;;18.52;11.73;;;2.20;99.90;;;1.82;93.51;98368.13;172025;28;1364;-74
2021/10/29 00:09:14;;;;;;;18.95;12.23;;;2.20;99.90;;;1.80;93.19;98362.13;172501;28;1265;-73
2021/10/29 00:09:19;;;;;;;19.30;11.82;;;2.20;99.90;;;1.81;93.66;98368.28;172089;28;1227;-73
2021/10/29 00:09:25;;;;;;;19.42;11.73;;;2.20;99.90;;;1.84;93.57;98365.38;172100;28;879;-75
2021/10/29 00:09:32;;;;;;;20.83;12.35;;;2.20;99.90;;;1.86;93.78;98372.28;172389;28;1236;-74
2021/10/29 00:09:39;;;;;;;21.17;12.13;;;2.20;99.90;;;1.77;93.62;98356.16;172916;28;1451;-74
2021/10/29 00:09:46;;;;;;;20.03;11.60;;;2.20;99.90;;;1.90;93.59;98373.75;173327;28;1363;-73
2021/10/29 00:09:53;;;;;;;18.60;11.80;;;2.20;99.90;;;1.84;93.45;98362.72;172439;28;1514;-73
2021/10/29 00:09:59;;;;;;;18.84;11.66;;;2.30;99.90;;;1.91;93.76;98374.63;172979;28;2480;-73
2021/10/29 00:10:06;;;;;;;17.65;11.43;;;2.30;99.90;;;1.91;93.11;98382.56;172722;28;1456;-74
2021/10/29 00:10:13;;;;;;;18.87;12.17;;;2.20;99.90;;;1.80;93.16;98366.56;171510;28;1259;-74
2021/10/29 00:10:19;;;;;;;21.10;12.03;;;2.20;99.90;;;1.86;93.54;98371.44;171287;28;1188;-74
2021/10/29 00:10:27;;;;;;;22.13;12.10;;;2.20;99.90;;;1.84;93.75;98368.88;173881;28;1161;-74
2021/10/29 00:10:33;;;;;;;23.60;12.67;;;2.20;99.90;;;1.82;93.03;98368.13;171911;28;1452;-74
2021/10/29 00:10:41;;;;;;;23.70;12.20;;;2.20;99.90;;;1.87;93.33;98386.38;172910;28;1549;-74
2021/10/29 00:10:47;;;;;;;22.44;12.40;;;2.20;99.90;;;1.88;93.18;98377.47;172530;28;1340;-73
2021/10/29 00:10:53;;;;;;;19.65;12.23;;;2.20;99.90;;;1.86;93.23;98382.91;171880;28;1179;-74
2021/10/29 00:10:59;;;;;;;18.70;11.52;;;2.20;99.90;;;1.87;93.01;98381.06;173313;28;1069;-74
2021/10/29 00:11:05;;;;;;;17.63;11.27;;;2.20;99.90;;;1.81;92.93;98374.44;172983;28;1267;-74
2021/10/29 00:11:11;;;;;;;17.07;11.20;;;2.20;99.90;;;1.75;93.34;98361.59;173223;28;1018;-74
2021/10/29 00:11:17;;;;;;;17.93;11.17;;;2.20;99.90;;;1.80;92.99;98377.19;171135;28;1251;-73
2021/10/29 00:11:23;;;;;;;18.88;11.35;;;2.20;99.90;;;1.67;92.66;98356.84;171033;28;1328;-74
2021/10/29 00:11:29;;;;;;;21.36;11.82;;;2.20;99.90;;;1.75;93.16;98366.91;171246;28;993;-74
2021/10/29 00:11:35;;;;;;;23.20;12.00;;;2.20;99.90;;;1.82;93.04;98376.09;171315;28;1382;-75
2021/10/29 00:11:41;;;;;;;23.30;11.95;;;2.20;99.90;;;1.71;92.92;98362.75;172520;28;1293;-74
2021/10/29 00:11:47;;;;;;;22.38;11.88;;;2.20;99.90;;;1.70;93.24;98361.09;172375;28;1454;-73
2021/10/29 00:11:53;;;;;;;22.60;12.02;;;2.10;99.90;;;1.77;93.02;98375.59;171878;28;1323;-74
2021/10/29 00:12:00;;;;;;;20.90;12.00;;;2.10;99.90;;;1.70;93.14;98355.78;170838;28;1318;-74
2021/10/29 00:12:07;;;;;;;18.90;12.05;;;2.10;99.90;;;1.73;93.37;98375.94;172464;28;1802;-74
2021/10/29 00:12:13;;;;;;;19.60;12.63;;;2.10;99.90;;;1.70;93.12;98361.94;172078;28;1216;-74
2021/10/29 00:12:21;;;;;;;19.26;12.58;;;2.20;99.90;;;1.70;93.35;98367.25;172464;28;1245;-74
2021/10/29 00:12:27;;;;;;;18.57;12.30;;;2.10;99.90;;;1.70;93.14;98369.91;171747;28;1216;-74
2021/10/29 00:12:33;;;;;;;19.37;12.10;;;2.10;99.90;;;1.75;93.22;98384.63;173067;28;1398;-74
2021/10/29 00:12:40;;;;;;;18.37;11.73;;;2.10;99.90;;;1.67;93.44;98370.09;172150;28;1214;-74
2021/10/29 00:12:46;;;;;;;18.70;12.00;;;2.10;99.90;;;1.70;93.64;98380.53;171059;28;1446;-73
2021/10/29 00:12:53;;;;;;;19.57;12.13;;;2.10;99.90;;;1.68;93.28;98370.94;172153;28;1367;-73
2021/10/29 00:12:59;;;;;;;19.77;12.23;;;2.10;99.90;;;1.68;93.24;98369.16;172645;28;931;-74
2021/10/29 00:13:05;;;;;;;21.30;12.15;;;2.10;99.90;;;1.68;93.47;98370.94;171917;28;1362;-74
2021/10/29 00:13:11;;;;;;;21.23;12.03;;;2.10;99.90;;;1.70;92.85;98375.22;173258;28;1235;-74
2021/10/29 00:13:17;;;;;;;20.70;11.65;;;2.10;99.90;;;1.69;93.12;98372.66;173065;28;1860;-72
2021/10/29 00:13:23;;;;;;;19.90;11.30;;;2.10;99.90;;;1.71;93.14;98376.88;172457;28;1709;-74
2021/10/29 00:13:29;;;;;;;20.40;11.80;;;2.10;99.90;;;1.64;93.46;98373.00;173308;28;1053;-74
2021/10/29 00:13:35;;;;;;;18.65;11.63;;;2.10;99.90;;;1.66;93.03;98376.38;172547;28;1394;-74
2021/10/29 00:13:42;;;;;;;18.73;11.60;;;2.10;99.90;;;1.70;93.14;98382.31;171927;28;1617;-74
2021/10/29 00:13:48;;;;;;;19.03;11.70;;;2.10;99.90;;;1.63;93.53;98370.44;171719;28;1119;-74
2021/10/29 00:13:54;;;;;;;20.23;12.50;;;2.10;99.90;;;1.60;93.31;98366.22;172691;28;839;-73
2021/10/29 00:14:01;;;;;;;19.75;12.20;;;2.10;99.90;;;1.67;93.42;98374.56;172252;28;1171;-74
2021/10/29 00:14:09;;;;;;;19.44;12.48;;;2.00;99.90;;;1.65;93.51;98373.84;173146;28;1804;-74
2021/10/29 00:14:15;;;;;;;20.93;12.17;;;2.10;99.90;;;1.60;93.89;98360.91;172103;28;1269;-73
2021/10/29 00:14:22;;;;;;;19.50;11.75;;;2.00;99.90;;;1.51;93.54;98347.41;171940;28;1251;-73
2021/10/29 00:14:32;;;;;;;18.98;11.07;;;2.00;99.90;;;1.60;93.38;98368.88;171727;28;950;-74
2021/10/29 00:14:41;;;;;;;20.86;10.88;;;2.00;99.90;;;1.64;93.95;98373.00;172438;28;1277;-73
2021/10/29 00:14:47;;;;;;;20.93;11.37;;;2.00;99.90;;;1.63;93.58;98373.94;173352;28;989;-73
2021/10/29 00:14:53;;;;;;;22.40;11.95;;;2.00;99.90;;;1.64;93.86;98374.78;173819;28;1319;-74
2021/10/29 00:14:59;;;;;;;22.18;12.30;;;2.00;99.90;;;1.68;93.50;98381.56;171801;28;1565;-75
2021/10/29 00:15:06;;;;;;;21.67;12.50;;;2.00;99.90;;;1.62;93.74;98372.25;171782;28;1104;-73
2021/10/29 00:15:12;;;;;;;21.35;12.18;;;2.00;99.90;;;1.62;94.05;98366.06;173953;28;985;-73
2021/10/29 00:15:19;;;;;;;19.07;11.80;;;2.00;99.90;;;1.65;93.74;98373.84;172509;28;984;-73
2021/10/29 00:15:25;;;;;;;18.28;11.24;;;2.00;99.90;;;1.63;93.44;98373.09;171861;28;918;-74
2021/10/29 00:15:32;;;;;;;18.10;10.82;;;2.00;99.90;;;1.66;93.85;98376.38;172456;28;1119;-74
2021/10/29 00:15:38;;;;;;;16.73;10.93;;;2.00;99.90;;;1.66;93.82;98378.16;171677;28;1746;-74
2021/10/29 00:15:44;;;;;;;17.92;11.14;;;2.00;99.90;;;1.65;93.72;98379.16;172406;28;1526;-74
2021/10/29 00:15:51;;;;;;;20.13;11.77;;;2.00;99.90;;;1.60;93.31;98376.81;173492;28;1198;-74
2021/10/29 00:15:57;;;;;;;22.20;12.20;;;2.00;99.90;;;1.61;93.70;98373.19;173064;28;1090;-73
2021/10/29 00:16:04;;;;;;;23.00;12.58;;;2.00;99.90;;;1.59;93.43;98364.50;173743;28;1413;-74
2021/10/29 00:16:10;;;;;;;22.48;12.05;;;2.00;99.90;;;1.69;93.53;98372.66;173045;28;1327;-73
2021/10/29 00:16:16;;;;;;;19.90;11.70;;;2.00;99.90;;;1.69;93.24;98377.97;171115;28;1286;-73
2021/10/29 00:16:22;;;;;;;19.34;11.48;;;2.00;99.90;;;1.69;93.65;98378.81;171263;28;1216;-73
2021/10/29 00:16:28;;;;;;;22.48;11.73;;;2.00;99.90;;;1.62;93.50;98366.94;172386;28;1467;-74
2021/10/29 00:16:34;;;;;;;22.15;11.80;;;2.00;99.90;;;1.63;93.59;98375.75;172400;28;2253;-74
2021/10/29 00:16:40;;;;;;;23.65;12.45;;;2.00;99.90;;;1.61;93.21;98365.22;172505;28;1057;-74
2021/10/29 00:16:46;;;;;;;26.10;12.80;;;2.00;99.90;;;1.63;93.13;98376.59;171986;28;947;-74
2021/10/29 00:16:52;;;;;;;25.75;12.77;;;2.00;99.90;;;1.59;93.46;98367.16;170987;28;1419;-74
2021/10/29 00:17:00;;;;;;;19.75;12.02;;;2.00;99.90;;;1.64;93.30;98374.78;173292;28;879;-74
2021/10/29 00:17:07;;;;;;;19.13;11.50;;;2.00;99.90;;;1.61;93.64;98370.53;173127;28;2042;-73
2021/10/29 00:17:13;;;;;;;18.92;11.18;;;2.00;99.90;;;1.65;93.32;98380.00;173055;28;1050;-74
2021/10/29 00:17:21;;;;;;;20.38;11.20;;;2.00;99.90;;;1.70;93.50;98375.22;171604;28;1423;-74
2021/10/29 00:17:27;;;;;;;21.77;11.50;;;2.00;99.90;;;1.67;93.71;98372.75;171284;28;836;-73
2021/10/29 00:17:33;;;;;;;22.23;11.90;;;2.00;99.90;;;1.60;93.69;98354.75;170959;28;1224;-74
2021/10/29 00:17:39;;;;;;;23.05;12.07;;;2.10;99.90;;;1.73;93.60;98378.56;170516;28;1177;-74
2021/10/29 00:17:45;;;;;;;20.46;11.86;;;2.10;99.90;;;1.71;93.29;98371.56;171695;28;1177;-74
2021/10/29 00:17:51;;;;;;;19.77;11.68;;;2.00;99.90;;;1.70;93.66;98375.22;172173;28;1446;-74
2021/10/29 00:17:58;;;;;;;19.63;11.30;;;2.10;99.90;;;1.62;93.45;98358.13;171969;28;2490;-74
2021/10/29 00:18:04;;;;;;;19.02;11.20;;;2.10;99.90;;;1.76;93.71;98378.38;171263;28;1471;-75
2021/10/29 00:18:10;;;;;;;18.92;11.36;;;2.10;99.90;;;1.73;93.44;98382.09;171110;28;1428;-73
2021/10/29 00:18:16;;;;;;;18.95;11.27;;;2.10;99.90;;;1.71;93.42;98370.72;172464;28;1009;-74
2021/10/29 00:18:23;;;;;;;20.00;11.40;;;2.10;99.90;;;1.66;93.03;98364.91;172342;28;1156;-73
2021/10/29 00:18:29;;;;;;;20.17;11.53;;;2.10;99.90;;;1.74;92.88;98385.59;172410;28;1972;-74
2021/10/29 00:18:35;;;;;;;19.08;11.20;;;2.10;99.90;;;1.66;93.05;98368.41;172625;28;1290;-73
2021/10/29 00:18:41;;;;;;;18.80;10.73;;;2.10;99.90;;;1.75;93.20;98380.19;172968;28;1118;-72
2021/10/29 00:18:47;;;;;;;18.92;10.43;;;2.10;99.90;;;1.68;93.35;98369.16;172511;28;1604;-74
2021/10/29 00:18:53;;;;;;;19.07;10.47;;;2.10;99.90;;;1.75;93.25;98374.03;172539;28;1143;-74
2021/10/29 00:18:59;;;;;;;18.02;10.40;;;2.10;99.90;;;1.73;93.46;98379.44;173178;28;1275;-74
2021/10/29 00:19:05;;;;;;;18.30;10.57;;;2.10;99.90;;;1.73;92.79;98370.63;173756;28;1133;-74
2021/10/29 00:19:11;;;;;;;18.15;10.90;;;2.10;99.90;;;1.78;93.26;98384.41;171273;28;979;-74
2021/10/29 00:19:17;;;;;;;18.48;11.35;;;2.10;99.90;;;1.66;93.39;98362.25;172190;28;1394;-73
2021/10/29 00:19:23;;;;;;;18.53;11.63;;;2.10;99.90;;;1.76;93.02;98371.25;172870;28;1458;-73
2021/10/29 00:19:29;;;;;;;20.00;11.80;;;2.10;99.90;;;1.71;93.46;98368.06;173128;28;1187;-73
2021/10/29 00:19:35;;;;;;;20.67;11.75;;;2.10;99.90;;;1.76;93.46;98373.06;172462;28;1247;-73
2021/10/29 00:19:41;;;;;;;23.27;11.90;;;2.10;99.90;;;1.70;93.47;98361.94;172559;28;1378;-74
2021/10/29 00:19:47;;;;;;;22.90;11.82;;;2.10;99.90;;;1.69;93.44;98368.19;171448;28;1938;-73
2021/10/29 00:19:53;;;;;;;21.88;11.64;;;2.10;99.90;;;1.77;92.95;98372.09;171160;28;1342;-74
2021/10/29 00:19:59;;;;;;;21.52;11.70;;;2.10;99.90;;;1.67;93.24;98367.44;170871;28;2224;-74
2021/10/29 00:20:07;;;;;;;20.40;11.75;;;2.10;99.90;;;1.68;93.47;98363.84;171194;28;1070;-73
2021/10/29 00:20:13;;;;;;;17.77;11.57;;;2.10;99.90;;;1.70;92.90;98377.88;171533;28;1464;-74
2021/10/29 00:20:20;;;;;;;18.87;11.67;;;2.10;99.90;;;1.71;93.16;98376.03;172412;28;1464;-73
2021/10/29 00:20:26;;;;;;;20.77;12.00;;;2.10;99.90;;;1.66;92.67;98371.06;173838;28;1532;-74
2021/10/29 00:20:33;;;;;;;21.03;11.83;;;2.00;99.90;;;1.64;92.92;98365.03;171962;28;1044;-74
2021/10/29 00:20:39;;;;;;;20.82;11.46;;;2.00;99.90;;;1.65;92.84;98366.72;172075;28;1324;-73
2021/10/29 00:20:46;;;;;;;21.30;11.55;;;2.10;99.90;;;1.63;93.18;98362.47;172513;28;1327;-73
2021/10/29 00:20:52;;;;;;;19.93;10.97;;;2.00;99.90;;;1.70;92.68;98374.34;172175;28;1459;-73
2021/10/29 00:20:58;;;;;;;19.15;10.80;;;2.00;99.90;;;1.68;93.20;98374.47;171305;28;1106;-74
2021/10/29 00:21:04;;;;;;;18.52;10.90;;;2.00;99.90;;;1.61;92.79;98359.91;172503;28;1490;-74
2021/10/29 00:21:10;;;;;;;19.55;11.73;;;2.00;99.90;;;1.64;92.80;98362.38;173265;28;1089;-73
2021/10/29 00:21:16;;;;;;;20.57;12.33;;;2.00;99.90;;;1.65;92.96;98368.53;173095;28;1297;-72
2021/10/29 00:21:22;;;;;;;20.50;12.53;;;2.00;99.90;;;1.62;93.32;98371.38;173423;28;1512;-74
2021/10/29 00:21:28;;;;;;;21.13;12.77;;;2.00;99.90;;;1.66;93.20;98371.06;172706;28;970;-74
2021/10/29 00:21:34;;;;;;;21.63;12.97;;;2.00;99.90;;;1.63;93.58;98367.78;172496;28;1452;-73
2021/10/29 00:21:40;;;;;;;21.05;12.60;;;2.00;99.90;;;1.66;93.46;98367.56;172572;28;963;-74
2021/10/29 00:21:46;;;;;;;19.67;12.00;;;2.00;99.90;;;1.62;93.14;98358.97;172058;28;1055;-74
2021/10/29 00:21:53;;;;;;;20.23;11.98;;;2.00;99.90;;;1.63;93.20;98362.47;171573;28;1372;-74
2021/10/29 00:22:00;;;;;;;18.87;11.57;;;2.00;99.90;;;1.63;93.29;98367.78;171397;28;1378;-74
2021/10/29 00:22:06;;;;;;;19.10;11.48;;;2.00;99.90;;;1.63;93.41;98371.28;171581;28;1264;-74
2021/10/29 00:22:12;;;;;;;19.75;11.23;;;2.00;99.90;;;1.63;93.63;98371.28;171488;28;1229;-74
2021/10/29 00:22:18;;;;;;;20.10;11.03;;;2.00;99.90;;;1.67;93.09;98372.75;171299;28;1109;-74
2021/10/29 00:22:24;;;;;;;19.40;10.85;;;2.00;99.90;;;1.65;93.39;98369.38;170590;28;1291;-74
2021/10/29 00:22:30;;;;;;;19.23;10.93;;;2.00;99.90;;;1.66;93.54;98378.16;171902;28;1227;-74
2021/10/29 00:22:37;;;;;;;20.10;11.07;;;2.00;99.90;;;1.72;93.37;98377.72;170259;28;1263;-74
2021/10/29 00:22:43;;;;;;;20.20;11.13;;;2.00;99.90;;;1.67;93.65;98364.78;172299;28;1477;-74
2021/10/29 00:22:50;;;;;;;19.83;11.97;;;2.00;99.90;;;1.64;92.97;98375.66;172487;28;1066;-74
2021/10/29 00:22:56;;;;;;;21.20;12.87;;;2.00;99.90;;;1.68;93.40;98368.31;173124;28;1040;-74
2021/10/29 00:23:02;;;;;;;21.08;12.90;;;2.00;99.90;;;1.65;93.61;98365.88;172480;28;1307;-72
2021/10/29 00:23:08;;;;;;;19.87;12.80;;;2.00;99.90;;;1.73;93.85;98379.44;172584;28;1534;-74
2021/10/29 00:23:14;;;;;;;19.48;12.77;;;2.00;99.90;;;1.65;93.42;98360.56;172611;28;978;-73
2021/10/29 00:23:21;;;;;;;18.87;12.20;;;2.00;99.90;;;1.71;93.16;98376.88;172436;28;1344;-73
2021/10/29 00:23:30;;;;;;;17.56;11.58;;;2.00;99.90;;;1.66;93.34;98360.44;171323;28;1364;-74
2021/10/29 00:23:36;;;;;;;16.91;11.20;;;2.10;99.90;;;1.72;93.31;98372.41;173295;28;1709;-74
2021/10/29 00:23:42;;;;;;;15.68;10.80;;;2.10;99.90;;;1.77;93.85;98374.75;174242;28;1973;-73
2021/10/29 00:23:48;;;;;;;15.60;10.70;;;2.10;99.90;;;1.73;93.67;98367.97;172533;28;1672;-74
2021/10/29 00:23:56;;;;;;;16.17;10.93;;;2.10;99.90;;;1.76;93.56;98376.56;171090;28;1458;-75
2021/10/29 00:24:02;;;;;;;17.13;11.03;;;2.10;99.90;;;1.79;93.57;98378.16;172438;28;1455;-74
2021/10/29 00:24:08;;;;;;;20.52;11.75;;;2.10;99.90;;;1.71;93.66;98362.75;174074;28;1427;-73
2021/10/29 00:24:14;;;;;;;21.83;11.82;;;2.10;99.90;;;1.78;93.84;98366.69;173870;28;1212;-74
2021/10/29 00:24:20;;;;;;;20.93;11.70;;;2.10;99.90;;;1.83;93.84;98374.31;172473;28;1441;-74
2021/10/29 00:24:26;;;;;;;20.57;11.53;;;2.10;99.90;;;1.82;93.72;98372.59;173856;28;1050;-74
2021/10/29 00:24:33;;;;;;;20.02;11.40;;;2.10;99.90;;;1.79;93.47;98373.69;171292;28;1030;-73
2021/10/29 00:24:39;;;;;;;18.83;11.47;;;2.10;99.90;;;1.84;93.66;98384.81;173459;28;1212;-74
2021/10/29 00:24:45;;;;;;;20.40;11.90;;;2.20;99.90;;;1.84;93.70;98379.50;173995;28;839;-73
2021/10/29 00:24:52;;;;;;;21.03;11.53;;;2.20;99.90;;;1.78;93.87;98368.47;173415;28;1318;-74
2021/10/29 00:24:59;;;;;;;22.74;11.60;;;2.20;99.90;;;1.77;93.69;98364.97;173976;28;1920;-74
2021/10/29 00:25:05;;;;;;;22.02;11.65;;;2.10;99.90;;;1.80;93.62;98371.88;172365;28;1391;-74
2021/10/29 00:25:12;;;;;;;22.02;11.42;;;2.20;99.90;;;1.76;93.11;98365.09;172573;28;895;-74
2021/10/29 00:25:18;;;;;;;22.05;11.77;;;2.20;99.90;;;1.78;93.23;98368.47;173686;28;1050;-73
2021/10/29 00:25:24;;;;;;;21.12;11.70;;;2.20;99.90;;;1.81;93.40;98373.59;172377;28;2359;-75
2021/10/29 00:25:30;;;;;;;21.03;12.10;;;2.20;99.90;;;1.84;93.45;98378.66;173276;28;1197;-73
2021/10/29 00:25:36;;;;;;;20.26;11.82;;;2.20;99.90;;;1.77;93.47;98364.13;173804;28;1102;-74
2021/10/29 00:25:42;;;;;;;18.95;12.20;;;2.10;99.90;;;1.80;93.18;98372.72;172713;28;1101;-74
2021/10/29 00:25:49;;;;;;;18.25;11.93;;;2.10;99.90;;;1.78;93.18;98369.34;171311;28;1028;-73
2021/10/29 00:25:55;;;;;;;19.40;12.67;;;2.10;99.90;;;1.77;93.30;98372.09;170669;28;1206;-74
2021/10/29 00:26:01;;;;;;;19.60;12.40;;;2.10;99.90;;;1.78;93.36;98365.81;170969;28;1338;-74
2021/10/29 00:26:06;;;;;;;19.98;12.07;;;2.10;99.90;;;1.80;92.96;98374.53;172413;28;1742;-75
2021/10/29 00:26:13;;;;;;;19.88;11.52;;;2.10;99.90;;;1.79;92.88;98372.84;171552;28;1355;-74
2021/10/29 00:26:19;;;;;;;19.78;11.36;;;2.10;99.90;;;1.70;92.90;98356.63;171739;28;1445;-74
2021/10/29 00:26:25;;;;;;;19.30;11.20;;;2.10;99.90;;;1.69;93.21;98365.53;172063;28;1731;-74
2021/10/29 00:26:31;;;;;;;19.50;11.40;;;2.10;99.90;;;1.75;92.82;98379.31;171854;28;1288;-74
2021/10/29 00:26:37;;;;;;;19.23;11.60;;;2.10;99.90;;;1.68;92.98;98361.19;171116;28;1326;-73
2021/10/29 00:26:43;;;;;;;20.02;11.50;;;2.10;99.90;;;1.75;93.18;98371.38;171836;28;1221;-74
2021/10/29 00:26:49;;;;;;;21.83;12.03;;;2.10;99.90;;;1.74;93.45;98372.31;171586;28;1074;-73
2021/10/29 00:26:55;;;;;;;20.63;11.83;;;2.10;99.90;;;1.74;93.06;98374.97;171063;28;1389;-75
2021/10/29 00:27:01;;;;;;;19.60;11.88;;;2.10;99.90;;;1.71;93.33;98363.59;171085;28;1287;-73
2021/10/29 00:27:07;;;;;;;19.90;11.93;;;2.10;99.90;;;1.75;93.00;98374.88;171037;28;1556;-75
2021/10/29 00:27:13;;;;;;;19.20;11.85;;;2.10;99.90;;;1.75;93.38;98377.53;173256;28;974;-74